Time;durP1;ratioP1;P1;durP2;ratioP2;P2;SDS_P1;SDS_P2;PMS_P1;PMS_P2;Temp;Humidity;BMP_temperature;BMP_pressure;BME280_temperature;BME280_humidity;BME280_pressure;Samples;Min_cycle;Max_cycle;Signal;HPM_P1;HPM_P2
2022/07/11 00:00:59;;;;;;;5.80;1.50;;;;;;;19.00;100.00;101265.41;2064496;28;20727;-68
2022/07/11 00:02:01;;;;;;;3.40;1.30;;;;;;;19.04;100.00;101262.44;2063899;28;20255;-68
2022/07/11 00:03:02;;;;;;;5.07;1.40;;;;;;;18.91;100.00;101251.41;2069738;28;20730;-68
2022/07/11 00:04:02;;;;;;;6.17;1.10;;;;;;;18.62;100.00;101211.13;2068609;28;20809;-68
2022/07/11 00:05:03;;;;;;;2.37;1.20;;;;;;;18.98;100.00;101265.09;2064898;28;20205;-68
2022/07/11 00:06:04;;;;;;;2.93;1.47;;;;;;;18.94;100.00;101269.34;2066670;28;20204;-68
2022/07/11 00:07:05;;;;;;;2.60;1.50;;;;;;;18.93;100.00;101259.38;2071569;28;20446;-68
2022/07/11 00:08:06;;;;;;;1.90;1.17;;;;;;;18.87;100.00;101242.38;2065352;28;20190;-68
2022/07/11 00:09:07;;;;;;;3.60;1.13;;;;;;;19.00;100.00;101262.63;2073287;28;20416;-68
2022/07/11 00:10:07;;;;;;;3.53;1.30;;;;;;;18.97;100.00;101269.16;2065467;28;20575;-68
2022/07/11 00:11:08;;;;;;;2.00;1.30;;;;;;;18.98;100.00;101261.53;2064379;28;20229;-68
2022/07/11 00:12:09;;;;;;;1.93;1.10;;;;;;;18.83;100.00;101263.47;2070438;28;20194;-68
2022/07/11 00:13:10;;;;;;;4.40;1.20;;;;;;;18.98;100.00;101258.72;2068227;28;20576;-68
2022/07/11 00:14:10;;;;;;;2.33;1.27;;;;;;;19.02;100.00;101262.91;2068019;28;20549;-68
2022/07/11 00:15:11;;;;;;;3.47;1.20;;;;;;;19.07;100.00;101256.63;2070912;28;20659;-68
2022/07/11 00:16:13;;;;;;;2.50;1.10;;;;;;;19.11;100.00;101260.06;2064009;28;20200;-68
2022/07/11 00:17:13;;;;;;;2.83;1.00;;;;;;;19.05;100.00;101269.59;2064600;28;20189;-68
2022/07/11 00:18:14;;;;;;;2.13;1.07;;;;;;;17.83;100.00;101082.59;2073037;28;20511;-68
2022/07/11 00:19:15;;;;;;;2.73;1.30;;;;;;;18.90;100.00;101251.88;2066018;28;20205;-68
2022/07/11 00:20:15;;;;;;;1.93;1.20;;;;;;;18.99;100.00;101263.84;2069809;28;20201;-69
2022/07/11 00:21:16;;;;;;;2.87;1.20;;;;;;;18.01;100.00;101096.56;2072141;28;20182;-68
2022/07/11 00:22:17;;;;;;;3.87;1.20;;;;;;;19.05;100.00;101264.00;2069316;28;20197;-68
2022/07/11 00:23:18;;;;;;;1.60;0.90;;;;;;;19.03;100.00;101261.66;2067076;28;20270;-68
2022/07/11 00:24:19;;;;;;;1.20;0.93;;;;;;;18.95;100.00;101263.25;2071384;28;20214;-68
2022/07/11 00:25:20;;;;;;;1.50;1.20;;;;;;;18.88;100.00;101263.56;2064501;28;20413;-68
2022/07/11 00:26:21;;;;;;;4.43;1.20;;;;;;;18.89;100.00;101264.38;2064481;28;20225;-68
2022/07/11 00:27:21;;;;;;;4.07;1.20;;;;;;;18.86;100.00;101274.53;2064883;28;20204;-68
2022/07/11 00:28:21;;;;;;;2.47;1.23;;;;;;;18.78;100.00;101272.53;2071277;28;20189;-68
2022/07/11 00:29:22;;;;;;;2.77;1.00;;;;;;;18.15;100.00;101172.41;2067681;28;20190;-68
2022/07/11 00:30:22;;;;;;;2.27;1.17;;;;;;;18.85;100.00;101267.34;2068904;28;20217;-68
2022/07/11 00:31:23;;;;;;;1.80;0.90;;;;;;;18.88;100.00;101280.44;2072645;28;20581;-68
2022/07/11 00:32:23;;;;;;;4.03;1.20;;;;;;;18.91;100.00;101279.50;2072483;28;20622;-68
2022/07/11 00:33:24;;;;;;;3.07;1.20;;;;;;;18.16;100.00;101159.94;2072015;28;20178;-68
2022/07/11 00:34:25;;;;;;;3.03;1.20;;;;;;;18.93;100.00;101264.97;2065163;28;20181;-68
2022/07/11 00:35:26;;;;;;;1.30;1.00;;;;;;;18.96;100.00;101272.44;2065410;28;20618;-68
2022/07/11 00:36:26;;;;;;;1.20;1.10;;;;;;;18.55;100.00;101248.72;2064983;28;20461;-68
2022/07/11 00:37:27;;;;;;;1.67;1.13;;;;;;;18.02;100.00;101144.53;2069797;28;20204;-68
2022/07/11 00:38:27;;;;;;;2.83;1.10;;;;;;;18.93;100.00;101273.41;2072929;28;20208;-68
2022/07/11 00:39:28;;;;;;;3.40;1.17;;;;;;;18.96;100.00;101272.44;2072722;28;20205;-68
2022/07/11 00:40:28;;;;;;;3.40;1.10;;;;;;;19.01;100.00;101271.81;2070157;28;20633;-68
2022/07/11 00:41:29;;;;;;;3.83;1.30;;;;;;;19.02;100.00;101271.34;2065478;28;20669;-69
2022/07/11 00:42:29;;;;;;;3.30;0.90;;;;;;;19.03;100.00;101267.25;2072683;28;20563;-68
2022/07/11 00:43:36;;;;;;;3.03;1.10;;;;;;;19.06;100.00;101269.13;2064868;28;20174;-68
2022/07/11 00:44:37;;;;;;;4.30;1.13;;;;;;;18.96;100.00;101269.63;2072792;28;20177;-68
2022/07/11 00:45:37;;;;;;;2.43;1.03;;;;;;;18.57;100.00;101215.34;2065280;28;20540;-68
2022/07/11 00:46:38;;;;;;;1.33;1.10;;;;;;;18.95;100.00;101263.25;2064796;28;20688;-68
2022/07/11 00:47:38;;;;;;;3.03;1.23;;;;;;;18.97;100.00;101262.75;2069188;28;20714;-68
2022/07/11 00:48:39;;;;;;;1.90;1.10;;;;;;;19.03;100.00;101264.47;2073057;28;20192;-68
2022/07/11 00:49:39;;;;;;;5.10;1.20;;;;;;;18.99;100.00;101265.88;2070538;28;20177;-68
2022/07/11 00:50:39;;;;;;;1.73;1.10;;;;;;;18.97;100.00;101266.34;2064435;28;20175;-68
2022/07/11 00:51:41;;;;;;;2.53;1.00;;;;;;;18.97;100.00;101265.56;2064789;28;20185;-68
2022/07/11 00:52:42;;;;;;;2.73;1.13;;;;;;;18.93;100.00;101257.31;2072450;28;20190;-68
2022/07/11 00:53:42;;;;;;;2.83;1.20;;;;;;;18.18;100.00;101147.00;2072761;28;20430;-68
2022/07/11 00:54:45;;;;;;;4.33;1.17;;;;;;;18.72;100.00;101241.50;2066911;28;20447;-68
2022/07/11 00:55:47;;;;;;;1.43;1.10;;;;;;;18.79;100.00;101268.47;2063737;28;20182;-68
2022/07/11 00:56:47;;;;;;;2.43;1.33;;;;;;;18.76;100.00;101261.75;2064689;28;20445;-68
2022/07/11 00:57:51;;;;;;;2.63;1.10;;;;;;;18.78;100.00;101264.88;2064480;28;20452;-68
2022/07/11 00:58:54;;;;;;;2.27;1.37;;;;;;;18.78;100.00;101290.13;2064503;28;20178;-68
2022/07/11 00:59:54;;;;;;;3.83;1.37;;;;;;;18.78;100.00;101275.34;2064472;28;20445;-68
2022/07/11 01:00:57;;;;;;;1.30;1.00;;;;;;;18.76;100.00;101273.00;2063692;28;20429;-68
2022/07/11 01:01:57;;;;;;;2.17;1.10;;;;;;;18.74;100.00;101260.69;2064169;28;20311;-68
2022/07/11 01:02:58;;;;;;;6.07;1.27;;;;;;;18.84;100.00;101265.00;2064128;28;20571;-68
2022/07/11 01:03:59;;;;;;;2.70;1.20;;;;;;;18.32;100.00;101186.88;2064714;28;20197;-68
2022/07/11 01:04:59;;;;;;;4.87;1.20;;;;;;;18.81;100.00;101272.34;2064516;28;20213;-68
2022/07/11 01:06:00;;;;;;;4.00;1.30;;;;;;;18.80;100.00;101262.38;2068040;28;20232;-68
2022/07/11 01:07:00;;;;;;;1.73;1.00;;;;;;;18.92;100.00;101283.84;2070721;28;20197;-68
2022/07/11 01:08:01;;;;;;;2.20;1.10;;;;;;;19.00;100.00;101289.91;2072768;28;20204;-68
2022/07/11 01:09:02;;;;;;;3.07;1.20;;;;;;;18.77;100.00;101257.69;2072588;28;20593;-68
2022/07/11 01:10:03;;;;;;;2.50;1.20;;;;;;;19.02;100.00;101291.00;2073024;28;20256;-68
2022/07/11 01:11:05;;;;;;;1.93;1.10;;;;;;;19.02;100.00;101295.81;2064195;28;20436;-68
2022/07/11 01:12:06;;;;;;;3.43;1.27;;;;;;;19.01;100.00;101297.09;2064589;28;20193;-68
2022/07/11 01:13:07;;;;;;;4.40;1.20;;;;;;;19.05;100.00;101290.06;2063978;28;20442;-68
2022/07/11 01:14:07;;;;;;;2.50;1.10;;;;;;;19.02;100.00;101293.00;2069604;28;20200;-68
2022/07/11 01:15:08;;;;;;;2.33;1.10;;;;;;;19.07;100.00;101295.19;2068841;28;20217;-68
2022/07/11 01:16:22;;;;;;;1.77;1.20;;;;;;;19.05;100.00;101295.69;2063723;28;20212;-68
2022/07/11 01:17:22;;;;;;;1.33;1.10;;;;;;;19.06;100.00;101291.59;2067780;28;20802;-68
2022/07/11 01:18:22;;;;;;;3.33;1.20;;;;;;;19.05;100.00;101292.06;2070511;28;20409;-68
2022/07/11 01:19:23;;;;;;;2.57;1.10;;;;;;;19.02;100.00;101290.19;2064548;28;20254;-68
2022/07/11 01:20:24;;;;;;;1.60;1.03;;;;;;;18.88;100.00;101265.63;2064471;28;20182;-68
2022/07/11 01:21:35;;;;;;;2.03;1.03;;;;;;;19.06;100.00;101299.25;2064679;28;20572;-68
2022/07/11 01:22:39;;;;;;;2.23;1.40;;;;;;;19.06;100.00;101311.28;2064187;28;20167;-68
2022/07/11 01:23:39;;;;;;;3.13;1.30;;;;;;;19.01;100.00;101288.66;2072169;28;20435;-68
2022/07/11 01:24:41;;;;;;;3.17;1.10;;;;;;;18.13;100.00;101170.06;2066247;28;20442;-68
2022/07/11 01:25:42;;;;;;;2.30;1.20;;;;;;;18.74;100.00;101260.69;2068966;28;20744;-67
2022/07/11 01:26:44;;;;;;;2.17;1.27;;;;;;;18.68;100.00;101254.91;2072599;28;20482;-68
2022/07/11 01:27:44;;;;;;;2.73;1.20;;;;;;;18.78;100.00;101287.31;2072612;28;20231;-68
2022/07/11 01:28:45;;;;;;;2.63;1.20;;;;;;;18.90;100.00;101306.03;2071114;28;20428;-68
2022/07/11 01:29:45;;;;;;;2.67;1.07;;;;;;;18.89;100.00;101298.84;2068332;28;20182;-68
2022/07/11 01:30:46;;;;;;;2.17;1.20;;;;;;;18.87;100.00;101301.34;2074463;28;20224;-68
2022/07/11 01:31:46;;;;;;;2.47;1.40;;;;;;;18.94;100.00;101322.72;2075005;28;20173;-68
2022/07/11 01:32:47;;;;;;;2.97;1.30;;;;;;;18.90;100.00;101314.44;2066608;28;20196;-68
2022/07/11 01:33:47;;;;;;;1.97;1.00;;;;;;;18.88;100.00;101313.38;2073323;28;20193;-68
2022/07/11 01:34:48;;;;;;;1.53;1.00;;;;;;;18.91;100.00;101318.03;2070406;28;20619;-68
2022/07/11 01:35:49;;;;;;;2.20;1.40;;;;;;;18.87;100.00;101320.22;2066235;28;20191;-68
2022/07/11 01:36:49;;;;;;;1.93;1.30;;;;;;;18.88;100.00;101311.31;2067173;28;20444;-68
2022/07/11 01:37:50;;;;;;;1.63;1.17;;;;;;;18.86;100.00;101325.06;2068651;28;20200;-68
2022/07/11 01:38:50;;;;;;;3.43;1.60;;;;;;;18.85;100.00;101309.47;2074837;28;20182;-68
2022/07/11 01:39:51;;;;;;;3.07;1.23;;;;;;;18.85;100.00;101314.31;2067307;28;20258;-68
2022/07/11 01:40:51;;;;;;;2.53;1.30;;;;;;;18.85;100.00;101306.66;2074269;28;20196;-68
2022/07/11 01:41:52;;;;;;;3.57;1.30;;;;;;;18.81;100.00;101303.25;2068853;28;20574;-68
2022/07/11 01:42:52;;;;;;;3.07;1.40;;;;;;;18.78;100.00;101295.00;2071596;28;20648;-68
2022/07/11 01:43:53;;;;;;;1.83;1.20;;;;;;;18.81;100.00;101302.44;2071143;28;20194;-68
2022/07/11 01:44:54;;;;;;;1.57;1.30;;;;;;;18.73;100.00;101307.63;2070061;28;20208;-68
2022/07/11 01:45:55;;;;;;;2.93;1.27;;;;;;;18.56;100.00;101280.38;2072560;28;20189;-68
2022/07/11 01:46:56;;;;;;;2.93;1.47;;;;;;;18.21;100.00;101223.06;2067793;28;20178;-68
2022/07/11 01:47:56;;;;;;;5.33;1.40;;;;;;;18.62;100.00;101307.34;2075620;28;20420;-68
2022/07/11 01:48:57;;;;;;;2.90;1.20;;;;;;;18.43;100.00;101282.59;2074495;28;20211;-68
2022/07/11 01:49:57;;;;;;;4.87;1.27;;;;;;;18.62;100.00;101307.34;2074541;28;20205;-68
2022/07/11 01:50:58;;;;;;;6.87;1.87;;;;;;;18.08;100.00;101224.00;2069272;28;20194;-68
2022/07/11 01:51:58;;;;;;;3.50;1.30;;;;;;;17.99;100.00;101198.00;2071705;28;20188;-68
2022/07/11 01:52:59;;;;;;;5.53;1.57;;;;;;;18.71;100.00;101309.34;2071081;28;20353;-68
2022/07/11 01:53:59;;;;;;;3.70;1.23;;;;;;;18.69;100.00;101301.41;2067148;28;20604;-68
2022/07/11 01:55:00;;;;;;;6.33;1.57;;;;;;;18.66;100.00;101307.16;2068041;28;20260;-68
2022/07/11 01:56:01;;;;;;;3.00;1.50;;;;;;;18.65;100.00;101300.78;2074611;28;20169;-68
2022/07/11 01:57:01;;;;;;;2.63;1.43;;;;;;;18.67;100.00;101311.56;2067328;28;20633;-68
2022/07/11 01:58:01;;;;;;;3.47;1.53;;;;;;;18.73;100.00;101304.03;2067180;28;20566;-68
2022/07/11 01:59:02;;;;;;;3.67;1.30;;;;;;;18.74;100.00;101308.41;2067074;28;20602;-68
2022/07/11 02:00:04;;;;;;;3.57;1.37;;;;;;;18.71;100.00;101301.72;2067026;28;20557;-68
2022/07/11 02:01:05;;;;;;;4.97;1.80;;;;;;;18.73;100.00;101299.19;2078067;28;20198;-68
2022/07/11 02:02:05;;;;;;;2.07;1.30;;;;;;;17.82;100.00;101159.53;2082839;28;20438;-68
2022/07/11 02:03:06;;;;;;;3.43;1.40;;;;;;;18.74;100.00;101297.97;2072876;28;20178;-68
2022/07/11 02:04:06;;;;;;;2.20;1.20;;;;;;;18.83;100.00;101303.53;2067566;28;20181;-68
2022/07/11 02:05:07;;;;;;;3.93;1.40;;;;;;;18.76;100.00;101303.88;2075341;28;20174;-68
2022/07/11 02:06:08;;;;;;;1.97;1.20;;;;;;;18.08;100.00;101187.53;2066882;28;20194;-68
2022/07/11 02:07:11;;;;;;;2.73;1.30;;;;;;;18.79;100.00;101302.91;2073334;28;20729;-68
2022/07/11 02:08:11;;;;;;;5.50;1.60;;;;;;;18.71;100.00;101290.47;2069678;28;20186;-68
2022/07/11 02:09:12;;;;;;;4.77;1.40;;;;;;;18.70;100.00;101296.56;2066935;28;20523;-68
2022/07/11 02:10:12;;;;;;;2.00;1.40;;;;;;;18.73;100.00;101295.63;2070221;28;20196;-68
2022/07/11 02:11:12;;;;;;;4.13;1.43;;;;;;;18.75;100.00;101295.91;2072893;28;20174;-68
2022/07/11 02:12:13;;;;;;;2.40;1.40;;;;;;;18.54;100.00;101266.81;2067934;28;20675;-68
2022/07/11 02:13:19;;;;;;;3.43;1.40;;;;;;;18.68;100.00;101291.41;2074600;28;20189;-68
2022/07/11 02:14:19;;;;;;;3.40;1.63;;;;;;;17.98;100.00;101193.63;2075449;28;20166;-68
2022/07/11 02:15:20;;;;;;;4.50;1.37;;;;;;;18.55;100.00;101279.59;2074761;28;20962;-68
2022/07/11 02:16:21;;;;;;;6.07;1.30;;;;;;;18.37;100.00;101264.84;2068175;28;20181;-68
2022/07/11 02:17:22;;;;;;;5.33;1.73;;;;;;;17.55;100.00;101131.53;2066944;28;20706;-68
2022/07/11 02:18:23;;;;;;;2.97;1.53;;;;;;;18.60;100.00;101292.22;2067125;28;20914;-68
2022/07/11 02:19:23;;;;;;;5.97;1.53;;;;;;;18.58;100.00;101300.34;2067264;28;20265;-68
2022/07/11 02:20:24;;;;;;;6.07;1.50;;;;;;;18.58;100.00;101303.91;2066876;28;20230;-68
2022/07/11 02:21:24;;;;;;;4.73;1.73;;;;;;;18.60;100.00;101297.81;2073249;28;20213;-68
2022/07/11 02:22:26;;;;;;;3.80;1.43;;;;;;;18.61;100.00;101302.19;2069543;28;20187;-68
2022/07/11 02:23:28;;;;;;;7.17;1.70;;;;;;;18.64;100.00;101307.66;2071058;28;20253;-68
2022/07/11 02:24:28;;;;;;;2.27;1.27;;;;;;;18.63;100.00;101306.06;2071898;28;20437;-68
2022/07/11 02:25:29;;;;;;;3.20;1.57;;;;;;;18.29;100.00;101244.69;2066590;28;20476;-68
2022/07/11 02:26:30;;;;;;;4.87;1.33;;;;;;;18.67;100.00;101301.09;2067366;28;20230;-68
2022/07/11 02:27:30;;;;;;;4.83;1.30;;;;;;;18.20;100.00;101230.69;2074894;28;20422;-68
2022/07/11 02:28:31;;;;;;;4.00;1.47;;;;;;;18.63;100.00;101300.47;2067339;28;20736;-68
2022/07/11 02:29:32;;;;;;;4.20;1.77;;;;;;;18.51;100.00;101300.66;2073722;28;20650;-68
2022/07/11 02:30:32;;;;;;;5.13;1.63;;;;;;;18.49;100.00;101292.72;2075012;28;20198;-69
2022/07/11 02:31:33;;;;;;;2.00;1.37;;;;;;;18.63;100.00;101311.69;2074350;28;20185;-68
2022/07/11 02:32:33;;;;;;;4.20;1.67;;;;;;;18.12;100.00;101231.47;2074008;28;20656;-68
2022/07/11 02:33:34;;;;;;;3.50;1.60;;;;;;;18.08;100.00;101239.25;2066718;28;20183;-68
2022/07/11 02:34:34;;;;;;;4.73;1.50;;;;;;;18.27;100.00;101255.59;2067079;28;20225;-68
2022/07/11 02:35:37;;;;;;;2.53;1.50;;;;;;;18.72;100.00;101319.34;2068166;28;20253;-68
2022/07/11 02:36:37;;;;;;;4.13;1.57;;;;;;;18.71;100.00;101324.16;2067205;28;20707;-68
2022/07/11 02:37:38;;;;;;;2.07;1.20;;;;;;;18.74;100.00;101328.84;2074540;28;20817;-68
2022/07/11 02:38:38;;;;;;;2.47;1.50;;;;;;;18.61;100.00;101310.59;2075027;28;20193;-68
2022/07/11 02:39:39;;;;;;;2.37;1.33;;;;;;;18.68;100.00;101332.75;2075051;28;20192;-68
2022/07/11 02:40:39;;;;;;;3.63;1.50;;;;;;;18.59;100.00;101325.13;2072726;28;20194;-68
2022/07/11 02:41:40;;;;;;;1.77;1.30;;;;;;;18.60;100.00;101323.88;2070581;28;20197;-68
2022/07/11 02:42:40;;;;;;;1.60;1.10;;;;;;;18.73;100.00;101332.13;2066326;28;20175;-68
2022/07/11 02:43:41;;;;;;;4.63;1.53;;;;;;;18.73;100.00;101334.94;2072886;28;20185;-68
2022/07/11 02:44:41;;;;;;;3.87;1.63;;;;;;;18.64;100.00;101330.13;2065835;28;20181;-68
2022/07/11 02:45:42;;;;;;;2.40;1.47;;;;;;;18.59;100.00;101344.00;2071924;28;20205;-68
2022/07/11 02:46:42;;;;;;;3.00;1.37;;;;;;;18.38;100.00;101309.22;2072978;28;20256;-68
2022/07/11 02:47:43;;;;;;;3.00;1.40;;;;;;;17.79;100.00;101222.91;2068120;28;20174;-68
2022/07/11 02:48:43;;;;;;;3.30;1.27;;;;;;;18.71;100.00;101343.03;2065686;28;20194;-68
2022/07/11 02:49:44;;;;;;;5.63;1.53;;;;;;;18.64;100.00;101341.34;2065702;28;20649;-68
2022/07/11 02:50:44;;;;;;;2.37;1.50;;;;;;;18.60;100.00;101337.91;2067421;28;20179;-68
2022/07/11 02:51:45;;;;;;;4.37;1.60;;;;;;;18.09;100.00;101264.81;2072559;28;20260;-68
2022/07/11 02:52:45;;;;;;;2.70;1.50;;;;;;;18.67;100.00;101346.00;2065432;28;20166;-68
2022/07/11 02:53:46;;;;;;;6.63;1.30;;;;;;;18.58;100.00;101334.78;2073533;28;20213;-68
2022/07/11 02:54:46;;;;;;;3.83;1.40;;;;;;;18.61;100.00;101355.53;2066947;28;20688;-68
2022/07/11 02:55:48;;;;;;;3.50;1.47;;;;;;;18.56;100.00;101339.31;2064697;28;20224;-68
2022/07/11 02:56:48;;;;;;;2.70;1.50;;;;;;;17.70;100.00;101214.50;2070420;28;20182;-68
2022/07/11 02:57:49;;;;;;;4.20;1.50;;;;;;;18.29;100.00;101315.59;2073557;28;20436;-68
2022/07/11 02:58:50;;;;;;;5.70;1.43;;;;;;;18.29;100.00;101326.06;2071068;28;20262;-68
2022/07/11 02:59:50;;;;;;;3.13;1.50;;;;;;;18.38;100.00;101350.56;2065419;28;20176;-68
2022/07/11 03:00:51;;;;;;;4.43;1.63;;;;;;;17.18;100.00;101181.13;2065642;28;20198;-68
2022/07/11 03:01:51;;;;;;;3.10;1.40;;;;;;;18.14;100.00;101339.91;2073956;28;20184;-68
2022/07/11 03:02:52;;;;;;;4.53;1.50;;;;;;;18.27;100.00;101358.66;2065670;28;20210;-68
2022/07/11 03:03:53;;;;;;;2.80;1.47;;;;;;;18.23;100.00;101358.00;2071064;28;20223;-68
2022/07/11 03:04:53;;;;;;;4.03;1.40;;;;;;;17.58;100.00;101265.09;2072800;28;20196;-67
2022/07/11 03:05:54;;;;;;;6.17;1.53;;;;;;;17.86;100.00;101314.38;2080180;28;20210;-68
2022/07/11 03:06:54;;;;;;;4.13;1.70;;;;;;;18.17;100.00;101362.69;2070293;28;20224;-68
2022/07/11 03:07:55;;;;;;;3.67;1.60;;;;;;;17.56;100.00;101278.81;2071829;28;20744;-67
2022/07/11 03:08:55;;;;;;;3.03;1.27;;;;;;;18.18;100.00;101365.03;2065354;28;20221;-68
2022/07/11 03:09:56;;;;;;;3.87;1.43;;;;;;;18.14;100.00;101362.38;2065773;28;20179;-68
2022/07/11 03:10:57;;;;;;;3.90;1.60;;;;;;;18.23;100.00;101372.03;2065325;28;20187;-68
2022/07/11 03:11:57;;;;;;;4.57;1.70;;;;;;;18.17;100.00;101369.84;2065408;28;20495;-68
2022/07/11 03:12:58;;;;;;;5.07;1.40;;;;;;;18.18;100.00;101371.41;2070267;28;20189;-68
2022/07/11 03:13:58;;;;;;;5.80;1.23;;;;;;;17.75;100.00;101317.59;2069033;28;20645;-67
2022/07/11 03:14:59;;;;;;;7.00;1.40;;;;;;;18.11;100.00;101376.53;2065290;28;20526;-67
2022/07/11 03:16:00;;;;;;;2.23;1.50;;;;;;;18.03;100.00;101364.84;2064574;28;20178;-68
2022/07/11 03:17:00;;;;;;;2.70;1.30;;;;;;;18.09;100.00;101359.41;2065302;28;20213;-68
2022/07/11 03:18:01;;;;;;;5.73;1.43;;;;;;;17.99;100.00;101344.59;2065437;28;20417;-68
2022/07/11 03:19:01;;;;;;;4.33;1.43;;;;;;;18.14;100.00;101381.25;2065565;28;20183;-68
2022/07/11 03:20:04;;;;;;;2.60;1.40;;;;;;;18.09;100.00;101379.03;2072398;28;20189;-68
2022/07/11 03:21:04;;;;;;;4.73;1.57;;;;;;;18.07;100.00;101386.38;2067221;28;20216;-68
2022/07/11 03:22:05;;;;;;;3.70;1.50;;;;;;;18.06;100.00;101382.00;2070506;28;20443;-68
2022/07/11 03:23:05;;;;;;;5.20;1.50;;;;;;;18.02;100.00;101389.78;2069004;28;20292;-68
2022/07/11 03:24:06;;;;;;;2.30;1.33;;;;;;;18.05;100.00;101386.81;2065257;28;20288;-68
2022/07/11 03:25:07;;;;;;;2.60;1.20;;;;;;;17.94;100.00;101378.84;2065238;28;20208;-67
2022/07/11 03:26:07;;;;;;;4.67;1.63;;;;;;;17.88;100.00;101379.16;2064275;28;20230;-67
2022/07/11 03:27:08;;;;;;;4.00;1.30;;;;;;;17.80;100.00;101370.25;2065506;28;20257;-67
2022/07/11 03:28:09;;;;;;;2.67;1.43;;;;;;;17.65;100.00;101332.09;2073148;28;20663;-68
2022/07/11 03:29:09;;;;;;;5.17;1.40;;;;;;;18.01;100.00;101391.81;2066767;28;20792;-67
2022/07/11 03:30:10;;;;;;;4.23;1.43;;;;;;;18.07;100.00;101394.78;2070667;28;20388;-68
2022/07/11 03:31:11;;;;;;;4.03;1.50;;;;;;;18.03;100.00;101398.50;2069018;28;20250;-67
2022/07/11 03:32:11;;;;;;;4.43;1.60;;;;;;;17.46;100.00;101303.25;2068539;28;20186;-68
2022/07/11 03:33:12;;;;;;;4.13;1.57;;;;;;;18.08;100.00;101397.13;2070584;28;20186;-68
2022/07/11 03:34:12;;;;;;;7.33;1.80;;;;;;;18.10;100.00;101397.44;2066051;28;20185;-68
2022/07/11 03:36:32;;;;;;;4.83;1.60;;;;;;;18.09;100.00;101407.84;2066425;28;20168;-68
2022/07/11 03:37:33;;;;;;;5.93;1.60;;;;;;;18.14;100.00;101412.84;2073338;28;20502;-68
2022/07/11 03:38:33;;;;;;;2.97;1.50;;;;;;;17.46;100.00;101291.25;2073649;28;20655;-68
2022/07/11 03:39:34;;;;;;;3.53;1.30;;;;;;;18.18;100.00;101401.50;2066177;28;20224;-68
2022/07/11 03:40:34;;;;;;;4.73;1.30;;;;;;;18.18;100.00;101412.72;2068926;28;20216;-68
2022/07/11 03:41:35;;;;;;;3.87;1.57;;;;;;;18.12;100.00;101403.34;2073175;28;20199;-68
2022/07/11 03:42:35;;;;;;;1.97;1.20;;;;;;;18.12;100.00;101406.16;2068795;28;20189;-67
2022/07/11 03:43:36;;;;;;;5.93;1.40;;;;;;;18.09;100.00;101409.91;2064440;28;20202;-68
2022/07/11 03:44:36;;;;;;;3.47;1.40;;;;;;;18.12;100.00;101411.00;2064393;28;20174;-67
2022/07/11 03:45:37;;;;;;;2.57;1.20;;;;;;;17.94;100.00;101386.50;2064306;28;20627;-67
2022/07/11 03:46:38;;;;;;;2.47;1.27;;;;;;;18.10;100.00;101419.88;2065475;28;20222;-67
2022/07/11 03:47:39;;;;;;;4.17;1.30;;;;;;;18.02;100.00;101416.59;2072723;28;20222;-68
2022/07/11 03:48:39;;;;;;;4.67;1.43;;;;;;;17.68;100.00;101351.56;2066706;28;20668;-68
2022/07/11 03:49:40;;;;;;;3.27;1.03;;;;;;;18.01;100.00;101408.63;2065244;28;20839;-68
2022/07/11 03:50:40;;;;;;;5.30;1.30;;;;;;;17.99;100.00;101408.31;2064850;28;20197;-67
2022/07/11 03:51:41;;;;;;;5.67;1.30;;;;;;;18.01;100.00;101421.88;2068188;28;20193;-68
2022/07/11 03:52:42;;;;;;;3.30;1.33;;;;;;;17.97;100.00;101410.78;2070514;28;20188;-67
2022/07/11 03:53:43;;;;;;;5.87;1.53;;;;;;;17.23;100.00;101300.94;2065876;28;20176;-68
2022/07/11 03:54:45;;;;;;;4.20;1.30;;;;;;;17.96;100.00;101403.63;2072960;28;20175;-67
2022/07/11 03:55:45;;;;;;;3.90;1.50;;;;;;;18.00;100.00;101415.50;2063964;28;20406;-68
2022/07/11 03:56:46;;;;;;;4.93;0.90;;;;;;;17.96;100.00;101416.88;2071732;28;20582;-68
2022/07/11 03:57:47;;;;;;;4.30;1.20;;;;;;;17.89;100.00;101401.13;2067073;28;20190;-67
2022/07/11 03:58:50;;;;;;;2.63;1.10;;;;;;;18.01;100.00;101416.28;2065096;28;20658;-68
2022/07/11 03:59:51;;;;;;;3.17;1.13;;;;;;;17.98;100.00;101410.34;2069236;28;20569;-68
2022/07/11 04:00:51;;;;;;;3.47;1.20;;;;;;;18.00;100.00;101418.28;2069780;28;20471;-67
2022/07/11 04:01:52;;;;;;;5.13;1.00;;;;;;;18.00;100.00;101412.69;2067325;28;20185;-67
2022/07/11 04:02:52;;;;;;;4.03;1.17;;;;;;;17.94;100.00;101406.13;2071144;28;20190;-67
2022/07/11 04:03:52;;;;;;;3.00;1.03;;;;;;;18.06;100.00;101415.66;2068959;28;20188;-68
2022/07/11 04:04:53;;;;;;;5.37;1.30;;;;;;;18.12;100.00;101414.56;2072009;28;20196;-67
2022/07/11 04:05:53;;;;;;;4.17;1.07;;;;;;;18.03;100.00;101408.97;2063194;28;20653;-67
2022/07/11 04:06:54;;;;;;;2.93;1.20;;;;;;;17.40;100.00;101310.66;2069563;28;20233;-67
2022/07/11 04:07:54;;;;;;;3.57;1.13;;;;;;;17.33;100.00;101303.31;2071392;28;20209;-68
2022/07/11 04:08:55;;;;;;;1.90;1.10;;;;;;;18.13;100.00;101409.75;2071486;28;20244;-68
2022/07/11 04:09:56;;;;;;;3.37;1.20;;;;;;;17.40;100.00;101299.47;2071802;28;20566;-68
2022/07/11 04:10:57;;;;;;;4.13;1.00;;;;;;;18.21;100.00;101417.41;2071671;28;20174;-68
2022/07/11 04:11:57;;;;;;;4.93;1.20;;;;;;;18.19;100.00;101417.09;2073270;28;20515;-67
2022/07/11 04:12:57;;;;;;;3.77;1.00;;;;;;;18.13;100.00;101402.88;2063923;28;20285;-68
2022/07/11 04:13:58;;;;;;;3.73;1.20;;;;;;;18.27;100.00;101418.31;2064474;28;20277;-68
2022/07/11 04:14:58;;;;;;;3.43;1.43;;;;;;;17.73;100.00;101342.53;2064227;28;20232;-68
2022/07/11 04:15:59;;;;;;;7.60;1.57;;;;;;;18.33;100.00;101427.75;2063331;28;20235;-67
2022/07/11 04:16:59;;;;;;;5.67;1.30;;;;;;;18.28;100.00;101417.88;2068399;28;20215;-68
2022/07/11 04:18:00;;;;;;;2.60;1.20;;;;;;;18.42;100.00;101436.16;2065076;28;20189;-67
2022/07/11 04:19:00;;;;;;;7.03;1.50;;;;;;;18.45;100.00;101438.03;2069816;28;20200;-67
2022/07/11 04:20:02;;;;;;;4.60;1.17;;;;;;;18.24;100.00;101394.03;2071392;28;20743;-68
2022/07/11 04:21:03;;;;;;;4.07;1.20;;;;;;;18.28;100.00;101408.69;2067968;28;20203;-68
2022/07/11 04:22:04;;;;;;;2.70;1.00;;;;;;;17.85;100.00;101350.03;2064113;28;20459;-68
2022/07/11 04:23:04;;;;;;;4.93;1.43;;;;;;;18.38;100.00;101418.69;2063977;28;20305;-68
2022/07/11 04:24:05;;;;;;;4.70;1.37;;;;;;;18.53;100.00;101435.69;2072595;28;20424;-68
2022/07/11 04:25:06;;;;;;;4.47;1.30;;;;;;;18.47;100.00;101437.56;2067771;28;20201;-68
2022/07/11 04:26:06;;;;;;;4.00;1.20;;;;;;;18.56;100.00;101437.56;2067382;28;20237;-68
2022/07/11 04:27:07;;;;;;;3.30;1.10;;;;;;;18.57;100.00;101442.72;2068738;28;20255;-69
2022/07/11 04:28:07;;;;;;;3.30;1.23;;;;;;;18.55;100.00;101428.38;2070832;28;20204;-69
2022/07/11 04:29:08;;;;;;;4.77;1.20;;;;;;;18.59;100.00;101434.63;2069750;28;20637;-68
2022/07/11 04:30:09;;;;;;;3.13;1.03;;;;;;;18.18;100.00;101379.81;2070519;28;20719;-68
2022/07/11 04:31:10;;;;;;;4.90;1.13;;;;;;;17.96;100.00;101350.34;2069335;28;20289;-69
2022/07/11 04:32:11;;;;;;;6.43;1.43;;;;;;;18.57;100.00;101444.75;2071209;28;20527;-69
2022/07/11 04:33:12;;;;;;;5.93;1.20;;;;;;;18.53;100.00;101433.66;2066613;28;20443;-69
2022/07/11 04:34:13;;;;;;;1.50;0.97;;;;;;;18.11;100.00;101378.59;2068440;28;20411;-68
2022/07/11 04:35:14;;;;;;;2.10;0.97;;;;;;;18.51;100.00;101436.16;2066830;28;20181;-69
2022/07/11 04:36:14;;;;;;;5.50;1.03;;;;;;;18.41;100.00;101422.56;2066234;28;20444;-69
2022/07/11 04:37:15;;;;;;;2.10;0.93;;;;;;;18.54;100.00;101456.91;2070156;28;20251;-69
2022/07/11 04:38:16;;;;;;;4.40;1.30;;;;;;;18.55;100.00;101450.03;2070275;28;20230;-69
2022/07/11 04:39:17;;;;;;;4.30;1.00;;;;;;;18.57;100.00;101447.56;2069485;28;20188;-69
2022/07/11 04:40:18;;;;;;;2.87;1.00;;;;;;;18.11;100.00;101392.63;2068529;28;20446;-69
2022/07/11 04:41:18;;;;;;;2.53;1.00;;;;;;;17.93;100.00;101340.84;2069602;28;20201;-68